Terminal Aerodrome Forecast
Issued by NWS Missoula, MT

Home | Current Version | Previous Version | Text Only | Print | Product List | Glossary On
Versions: 1 2 3 4 5 6 7 8 9 10 11 12 13 14 15 16 17 18 19 20 21 22 23 24 25
021
FTUS45 KMSO 111720
TAFMSO
TAF
KMSO 111720Z 1118/1218 00000KT P6SM BKN070
     FM120300 VRB04KT P6SM VCSH OVC050
     FM120500 VRB03KT 5SM -SNRA BR OVC040
     FM121000 VRB03KT P6SM VCSH BKN050 OVC100=

USA.gov is the U.S. government's official web portal to all federal, state and local government web resources and services.